sensor_id;sensor_type;location;lat;lon;timestamp;temperature;humidity
10702;DHT22;5402;50.004;8.246;2023-07-31T00:01:56;18.40;99.90
10702;DHT22;5402;50.004;8.246;2023-07-31T00:04:25;18.50;99.90
10702;DHT22;5402;50.004;8.246;2023-07-31T00:06:52;18.60;99.90
10702;DHT22;5402;50.004;8.246;2023-07-31T00:09:20;18.60;99.90
10702;DHT22;5402;50.004;8.246;2023-07-31T00:11:47;18.60;99.90
10702;DHT22;5402;50.004;8.246;2023-07-31T00:14:13;18.60;99.90
10702;DHT22;5402;50.004;8.246;2023-07-31T00:16:41;18.70;99.90
10702;DHT22;5402;50.004;8.246;2023-07-31T00:19:08;18.70;99.90
10702;DHT22;5402;50.004;8.246;2023-07-31T00:21:34;18.60;99.90
10702;DHT22;5402;50.004;8.246;2023-07-31T00:24:01;18.60;99.90
10702;DHT22;5402;50.004;8.246;2023-07-31T00:26:29;18.60;99.90
10702;DHT22;5402;50.004;8.246;2023-07-31T00:28:56;18.70;99.90
10702;DHT22;5402;50.004;8.246;2023-07-31T00:31:23;18.60;99.90
10702;DHT22;5402;50.004;8.246;2023-07-31T00:33:49;18.60;99.90
10702;DHT22;5402;50.004;8.246;2023-07-31T00:36:16;18.60;99.90
10702;DHT22;5402;50.004;8.246;2023-07-31T00:38:43;18.60;99.90
10702;DHT22;5402;50.004;8.246;2023-07-31T00:41:11;18.50;99.90
10702;DHT22;5402;50.004;8.246;2023-07-31T00:43:39;18.40;99.90
10702;DHT22;5402;50.004;8.246;2023-07-31T00:46:06;18.30;99.90
10702;DHT22;5402;50.004;8.246;2023-07-31T00:48:34;18.30;99.90
10702;DHT22;5402;50.004;8.246;2023-07-31T00:51:01;18.30;99.90
10702;DHT22;5402;50.004;8.246;2023-07-31T00:53:28;18.30;99.90
10702;DHT22;5402;50.004;8.246;2023-07-31T00:55:55;18.20;99.90
10702;DHT22;5402;50.004;8.246;2023-07-31T00:58:22;18.20;99.90
10702;DHT22;5402;50.004;8.246;2023-07-31T01:00:50;18.20;99.90
10702;DHT22;5402;50.004;8.246;2023-07-31T01:03:17;18.30;99.90
10702;DHT22;5402;50.004;8.246;2023-07-31T01:05:52;18.30;99.90
10702;DHT22;5402;50.004;8.246;2023-07-31T01:08:27;18.30;99.90
10702;DHT22;5402;50.004;8.246;2023-07-31T01:11:00;18.30;99.90
10702;DHT22;5402;50.004;8.246;2023-07-31T01:13:29;18.30;99.90
10702;DHT22;5402;50.004;8.246;2023-07-31T01:15:57;18.30;99.90
10702;DHT22;5402;50.004;8.246;2023-07-31T01:18:24;18.30;99.90
10702;DHT22;5402;50.004;8.246;2023-07-31T01:20:57;18.30;99.90
10702;DHT22;5402;50.004;8.246;2023-07-31T01:23:37;18.30;99.90
10702;DHT22;5402;50.004;8.246;2023-07-31T01:26:12;18.30;99.90
10702;DHT22;5402;50.004;8.246;2023-07-31T01:28:50;18.40;99.90
10702;DHT22;5402;50.004;8.246;2023-07-31T01:31:22;18.40;99.90
10702;DHT22;5402;50.004;8.246;2023-07-31T01:33:50;18.40;99.90
10702;DHT22;5402;50.004;8.246;2023-07-31T01:36:19;18.40;99.90
10702;DHT22;5402;50.004;8.246;2023-07-31T01:38:46;18.40;99.90
10702;DHT22;5402;50.004;8.246;2023-07-31T01:41:16;18.30;99.90
10702;DHT22;5402;50.004;8.246;2023-07-31T01:43:43;18.30;99.90
10702;DHT22;5402;50.004;8.246;2023-07-31T01:46:10;18.30;99.90
10702;DHT22;5402;50.004;8.246;2023-07-31T01:48:36;18.30;99.90
10702;DHT22;5402;50.004;8.246;2023-07-31T01:51:03;18.30;99.90
10702;DHT22;5402;50.004;8.246;2023-07-31T01:53:31;18.30;99.90
10702;DHT22;5402;50.004;8.246;2023-07-31T01:55:57;18.30;99.90
10702;DHT22;5402;50.004;8.246;2023-07-31T01:58:26;18.30;99.90
10702;DHT22;5402;50.004;8.246;2023-07-31T02:00:52;18.30;99.90
10702;DHT22;5402;50.004;8.246;2023-07-31T02:03:19;18.30;99.90
10702;DHT22;5402;50.004;8.246;2023-07-31T02:05:46;18.30;99.90
10702;DHT22;5402;50.004;8.246;2023-07-31T02:08:14;18.30;99.90
10702;DHT22;5402;50.004;8.246;2023-07-31T02:10:41;18.30;99.90
10702;DHT22;5402;50.004;8.246;2023-07-31T02:13:08;18.30;99.90
10702;DHT22;5402;50.004;8.246;2023-07-31T02:15:37;18.30;99.90
10702;DHT22;5402;50.004;8.246;2023-07-31T02:18:04;18.30;99.90
10702;DHT22;5402;50.004;8.246;2023-07-31T02:20:33;18.30;99.90
10702;DHT22;5402;50.004;8.246;2023-07-31T02:23:00;18.30;99.90
10702;DHT22;5402;50.004;8.246;2023-07-31T02:25:27;18.30;99.90
10702;DHT22;5402;50.004;8.246;2023-07-31T02:27:56;18.20;99.90
10702;DHT22;5402;50.004;8.246;2023-07-31T02:30:23;18.30;99.90
10702;DHT22;5402;50.004;8.246;2023-07-31T02:32:51;18.20;99.90
10702;DHT22;5402;50.004;8.246;2023-07-31T02:35:19;18.20;99.90
10702;DHT22;5402;50.004;8.246;2023-07-31T02:37:48;18.20;99.90
10702;DHT22;5402;50.004;8.246;2023-07-31T02:40:15;18.20;99.90
10702;DHT22;5402;50.004;8.246;2023-07-31T02:42:42;18.20;99.90
10702;DHT22;5402;50.004;8.246;2023-07-31T02:45:09;18.20;99.90
10702;DHT22;5402;50.004;8.246;2023-07-31T02:47:35;18.20;99.90
10702;DHT22;5402;50.004;8.246;2023-07-31T02:50:04;18.20;99.90
10702;DHT22;5402;50.004;8.246;2023-07-31T02:52:31;18.20;99.90
10702;DHT22;5402;50.004;8.246;2023-07-31T02:54:58;18.10;99.90
10702;DHT22;5402;50.004;8.246;2023-07-31T02:57:25;18.00;99.90
10702;DHT22;5402;50.004;8.246;2023-07-31T02:59:51;17.90;99.90
10702;DHT22;5402;50.004;8.246;2023-07-31T03:02:18;17.80;99.90
10702;DHT22;5402;50.004;8.246;2023-07-31T03:04:45;17.70;99.90
10702;DHT22;5402;50.004;8.246;2023-07-31T03:07:14;17.60;99.90
10702;DHT22;5402;50.004;8.246;2023-07-31T03:09:41;17.60;99.90
10702;DHT22;5402;50.004;8.246;2023-07-31T03:12:08;17.70;99.90
10702;DHT22;5402;50.004;8.246;2023-07-31T03:14:35;17.70;99.90
10702;DHT22;5402;50.004;8.246;2023-07-31T03:17:02;17.70;99.90
10702;DHT22;5402;50.004;8.246;2023-07-31T03:19:30;17.80;99.90
10702;DHT22;5402;50.004;8.246;2023-07-31T03:21:57;17.80;99.90
10702;DHT22;5402;50.004;8.246;2023-07-31T03:24:25;17.80;99.90
10702;DHT22;5402;50.004;8.246;2023-07-31T03:26:52;17.80;99.90
10702;DHT22;5402;50.004;8.246;2023-07-31T03:29:18;17.70;99.90
10702;DHT22;5402;50.004;8.246;2023-07-31T03:31:45;17.90;99.90
10702;DHT22;5402;50.004;8.246;2023-07-31T03:34:12;17.80;99.90
10702;DHT22;5402;50.004;8.246;2023-07-31T03:36:39;17.80;99.90
10702;DHT22;5402;50.004;8.246;2023-07-31T03:39:06;17.80;99.90
10702;DHT22;5402;50.004;8.246;2023-07-31T03:41:34;17.90;99.90
10702;DHT22;5402;50.004;8.246;2023-07-31T03:44:00;17.80;99.90
10702;DHT22;5402;50.004;8.246;2023-07-31T03:46:27;17.80;99.90
10702;DHT22;5402;50.004;8.246;2023-07-31T03:48:54;17.90;99.90
10702;DHT22;5402;50.004;8.246;2023-07-31T03:51:21;17.90;99.90
10702;DHT22;5402;50.004;8.246;2023-07-31T03:53:47;17.90;99.90
10702;DHT22;5402;50.004;8.246;2023-07-31T03:56:14;17.90;99.90
10702;DHT22;5402;50.004;8.246;2023-07-31T03:58:42;17.90;99.90
10702;DHT22;5402;50.004;8.246;2023-07-31T04:01:09;17.90;99.90
10702;DHT22;5402;50.004;8.246;2023-07-31T04:03:36;17.90;99.90
10702;DHT22;5402;50.004;8.246;2023-07-31T04:06:04;17.90;99.90
10702;DHT22;5402;50.004;8.246;2023-07-31T04:08:32;17.80;99.90
10702;DHT22;5402;50.004;8.246;2023-07-31T04:10:59;17.80;99.90
10702;DHT22;5402;50.004;8.246;2023-07-31T04:13:26;17.80;99.90
10702;DHT22;5402;50.004;8.246;2023-07-31T04:15:54;17.80;99.90
10702;DHT22;5402;50.004;8.246;2023-07-31T04:18:24;17.80;99.90
10702;DHT22;5402;50.004;8.246;2023-07-31T04:20:51;17.80;99.90
10702;DHT22;5402;50.004;8.246;2023-07-31T04:23:17;17.70;99.90
10702;DHT22;5402;50.004;8.246;2023-07-31T04:25:44;17.70;99.90
10702;DHT22;5402;50.004;8.246;2023-07-31T04:28:11;17.70;99.90
10702;DHT22;5402;50.004;8.246;2023-07-31T04:30:38;17.70;99.90
10702;DHT22;5402;50.004;8.246;2023-07-31T04:33:06;17.70;99.90
10702;DHT22;5402;50.004;8.246;2023-07-31T04:35:33;17.70;99.90
10702;DHT22;5402;50.004;8.246;2023-07-31T04:38:00;17.70;99.90
10702;DHT22;5402;50.004;8.246;2023-07-31T04:40:27;17.70;99.90
10702;DHT22;5402;50.004;8.246;2023-07-31T04:42:53;17.70;99.90
10702;DHT22;5402;50.004;8.246;2023-07-31T04:45:20;17.70;99.90
10702;DHT22;5402;50.004;8.246;2023-07-31T04:47:47;17.70;99.90
10702;DHT22;5402;50.004;8.246;2023-07-31T04:50:15;17.70;99.90
10702;DHT22;5402;50.004;8.246;2023-07-31T04:52:42;17.80;99.90
10702;DHT22;5402;50.004;8.246;2023-07-31T04:55:09;17.80;99.90
10702;DHT22;5402;50.004;8.246;2023-07-31T04:57:35;17.80;99.90
10702;DHT22;5402;50.004;8.246;2023-07-31T05:00:02;17.80;99.90
10702;DHT22;5402;50.004;8.246;2023-07-31T05:02:29;17.80;99.90
10702;DHT22;5402;50.004;8.246;2023-07-31T05:04:56;17.80;99.90
10702;DHT22;5402;50.004;8.246;2023-07-31T05:07:24;17.80;99.90
10702;DHT22;5402;50.004;8.246;2023-07-31T05:09:51;17.90;99.90
10702;DHT22;5402;50.004;8.246;2023-07-31T05:12:18;17.90;99.90
10702;DHT22;5402;50.004;8.246;2023-07-31T05:14:44;17.90;99.90
10702;DHT22;5402;50.004;8.246;2023-07-31T05:17:11;17.90;99.90
10702;DHT22;5402;50.004;8.246;2023-07-31T05:19:44;17.90;99.90
10702;DHT22;5402;50.004;8.246;2023-07-31T05:22:13;17.90;99.90
10702;DHT22;5402;50.004;8.246;2023-07-31T05:24:41;17.90;99.90
10702;DHT22;5402;50.004;8.246;2023-07-31T05:27:07;18.00;99.90
10702;DHT22;5402;50.004;8.246;2023-07-31T05:29:35;18.00;99.90
10702;DHT22;5402;50.004;8.246;2023-07-31T05:32:05;17.90;99.90
10702;DHT22;5402;50.004;8.246;2023-07-31T05:34:32;18.00;99.90
10702;DHT22;5402;50.004;8.246;2023-07-31T05:36:59;18.00;99.90
10702;DHT22;5402;50.004;8.246;2023-07-31T05:39:26;18.00;99.90
10702;DHT22;5402;50.004;8.246;2023-07-31T05:41:54;18.10;99.90
10702;DHT22;5402;50.004;8.246;2023-07-31T05:44:21;18.10;99.90
10702;DHT22;5402;50.004;8.246;2023-07-31T05:46:47;18.10;99.90
10702;DHT22;5402;50.004;8.246;2023-07-31T05:49:14;18.10;99.90
10702;DHT22;5402;50.004;8.246;2023-07-31T05:51:41;18.20;99.90
10702;DHT22;5402;50.004;8.246;2023-07-31T05:54:08;18.30;99.90
10702;DHT22;5402;50.004;8.246;2023-07-31T05:56:34;18.30;99.90
10702;DHT22;5402;50.004;8.246;2023-07-31T05:59:02;18.30;99.90
10702;DHT22;5402;50.004;8.246;2023-07-31T06:01:30;18.40;99.90
10702;DHT22;5402;50.004;8.246;2023-07-31T06:03:57;18.50;99.90
10702;DHT22;5402;50.004;8.246;2023-07-31T06:06:24;18.60;99.90
10702;DHT22;5402;50.004;8.246;2023-07-31T06:08:51;18.60;99.90
10702;DHT22;5402;50.004;8.246;2023-07-31T06:11:18;18.70;99.90
10702;DHT22;5402;50.004;8.246;2023-07-31T06:13:45;18.80;99.90
10702;DHT22;5402;50.004;8.246;2023-07-31T06:16:16;18.80;99.90
10702;DHT22;5402;50.004;8.246;2023-07-31T06:18:42;18.90;99.90
10702;DHT22;5402;50.004;8.246;2023-07-31T06:21:10;18.90;99.90
10702;DHT22;5402;50.004;8.246;2023-07-31T06:23:37;18.90;99.90
10702;DHT22;5402;50.004;8.246;2023-07-31T06:26:04;18.90;99.90
10702;DHT22;5402;50.004;8.246;2023-07-31T06:28:31;19.00;99.90
10702;DHT22;5402;50.004;8.246;2023-07-31T06:30:58;19.00;99.90
10702;DHT22;5402;50.004;8.246;2023-07-31T06:33:27;19.10;99.90
10702;DHT22;5402;50.004;8.246;2023-07-31T06:35:54;19.10;99.90
10702;DHT22;5402;50.004;8.246;2023-07-31T06:38:24;19.30;99.90
10702;DHT22;5402;50.004;8.246;2023-07-31T06:40:51;19.40;99.90
10702;DHT22;5402;50.004;8.246;2023-07-31T06:43:18;19.60;99.90
10702;DHT22;5402;50.004;8.246;2023-07-31T06:45:44;19.70;99.90
10702;DHT22;5402;50.004;8.246;2023-07-31T06:48:14;19.90;99.90
10702;DHT22;5402;50.004;8.246;2023-07-31T06:50:42;19.90;99.90
10702;DHT22;5402;50.004;8.246;2023-07-31T06:53:08;19.80;99.90
10702;DHT22;5402;50.004;8.246;2023-07-31T06:55:35;19.80;99.90
10702;DHT22;5402;50.004;8.246;2023-07-31T06:58:02;19.70;99.90
10702;DHT22;5402;50.004;8.246;2023-07-31T07:00:29;19.80;99.90
10702;DHT22;5402;50.004;8.246;2023-07-31T07:02:56;19.80;99.90
10702;DHT22;5402;50.004;8.246;2023-07-31T07:05:23;19.80;99.90
10702;DHT22;5402;50.004;8.246;2023-07-31T07:07:51;19.90;99.90
10702;DHT22;5402;50.004;8.246;2023-07-31T07:10:18;20.20;99.90
10702;DHT22;5402;50.004;8.246;2023-07-31T07:12:46;20.50;99.90
10702;DHT22;5402;50.004;8.246;2023-07-31T07:15:13;20.80;99.90
10702;DHT22;5402;50.004;8.246;2023-07-31T07:17:39;21.00;99.90
10702;DHT22;5402;50.004;8.246;2023-07-31T07:20:08;21.00;99.90
10702;DHT22;5402;50.004;8.246;2023-07-31T07:22:35;21.20;99.90
10702;DHT22;5402;50.004;8.246;2023-07-31T07:25:04;21.10;99.90
10702;DHT22;5402;50.004;8.246;2023-07-31T07:27:31;21.20;99.90
10702;DHT22;5402;50.004;8.246;2023-07-31T07:29:58;21.00;99.90
10702;DHT22;5402;50.004;8.246;2023-07-31T07:32:24;20.80;99.90
10702;DHT22;5402;50.004;8.246;2023-07-31T07:34:51;20.70;99.90
10702;DHT22;5402;50.004;8.246;2023-07-31T07:37:20;20.50;99.90
10702;DHT22;5402;50.004;8.246;2023-07-31T07:39:47;20.50;99.90
10702;DHT22;5402;50.004;8.246;2023-07-31T07:42:15;20.40;99.90
10702;DHT22;5402;50.004;8.246;2023-07-31T07:44:43;20.30;99.90
10702;DHT22;5402;50.004;8.246;2023-07-31T07:47:10;20.50;99.90
10702;DHT22;5402;50.004;8.246;2023-07-31T07:49:36;20.70;99.90
10702;DHT22;5402;50.004;8.246;2023-07-31T07:52:04;20.80;99.90
10702;DHT22;5402;50.004;8.246;2023-07-31T07:54:31;20.70;99.90
10702;DHT22;5402;50.004;8.246;2023-07-31T07:56:58;20.60;99.90
10702;DHT22;5402;50.004;8.246;2023-07-31T07:59:26;20.40;99.90
10702;DHT22;5402;50.004;8.246;2023-07-31T08:01:53;20.20;99.90
10702;DHT22;5402;50.004;8.246;2023-07-31T08:04:19;20.10;99.90
10702;DHT22;5402;50.004;8.246;2023-07-31T08:06:46;20.10;99.90
10702;DHT22;5402;50.004;8.246;2023-07-31T08:09:13;20.10;99.90
10702;DHT22;5402;50.004;8.246;2023-07-31T08:11:40;20.10;99.90
10702;DHT22;5402;50.004;8.246;2023-07-31T08:14:06;20.00;99.90
10702;DHT22;5402;50.004;8.246;2023-07-31T08:16:34;20.20;99.90
10702;DHT22;5402;50.004;8.246;2023-07-31T08:19:01;20.20;99.90
10702;DHT22;5402;50.004;8.246;2023-07-31T08:21:28;20.30;99.90
10702;DHT22;5402;50.004;8.246;2023-07-31T08:23:55;20.40;99.90
10702;DHT22;5402;50.004;8.246;2023-07-31T08:26:22;20.50;99.90
10702;DHT22;5402;50.004;8.246;2023-07-31T08:28:48;20.50;99.90
10702;DHT22;5402;50.004;8.246;2023-07-31T08:31:15;20.60;99.90
10702;DHT22;5402;50.004;8.246;2023-07-31T08:33:43;20.60;99.90
10702;DHT22;5402;50.004;8.246;2023-07-31T08:36:10;20.60;99.90
10702;DHT22;5402;50.004;8.246;2023-07-31T08:38:37;20.80;99.90
10702;DHT22;5402;50.004;8.246;2023-07-31T08:41:03;20.90;99.90
10702;DHT22;5402;50.004;8.246;2023-07-31T08:43:31;20.90;99.90
10702;DHT22;5402;50.004;8.246;2023-07-31T08:45:59;20.80;99.90
10702;DHT22;5402;50.004;8.246;2023-07-31T08:48:26;20.70;99.90
10702;DHT22;5402;50.004;8.246;2023-07-31T08:50:55;20.60;99.90
10702;DHT22;5402;50.004;8.246;2023-07-31T08:53:22;20.80;99.90
10702;DHT22;5402;50.004;8.246;2023-07-31T08:55:50;20.80;99.90
10702;DHT22;5402;50.004;8.246;2023-07-31T08:58:19;20.70;99.90
10702;DHT22;5402;50.004;8.246;2023-07-31T09:00:47;20.60;99.90
10702;DHT22;5402;50.004;8.246;2023-07-31T09:03:15;20.40;99.90
10702;DHT22;5402;50.004;8.246;2023-07-31T09:05:44;20.50;99.90
10702;DHT22;5402;50.004;8.246;2023-07-31T09:08:14;20.60;99.90
10702;DHT22;5402;50.004;8.246;2023-07-31T09:10:41;20.70;99.90
10702;DHT22;5402;50.004;8.246;2023-07-31T09:13:09;20.80;99.90
10702;DHT22;5402;50.004;8.246;2023-07-31T09:15:36;21.10;99.90
10702;DHT22;5402;50.004;8.246;2023-07-31T09:18:04;21.20;99.90
10702;DHT22;5402;50.004;8.246;2023-07-31T09:20:32;21.20;99.90
10702;DHT22;5402;50.004;8.246;2023-07-31T09:23:06;21.00;99.90
10702;DHT22;5402;50.004;8.246;2023-07-31T09:25:35;20.90;99.90
10702;DHT22;5402;50.004;8.246;2023-07-31T09:28:04;20.80;99.90
10702;DHT22;5402;50.004;8.246;2023-07-31T09:30:32;20.90;99.90
10702;DHT22;5402;50.004;8.246;2023-07-31T09:33:05;21.00;99.90
10702;DHT22;5402;50.004;8.246;2023-07-31T09:35:34;21.10;99.90
10702;DHT22;5402;50.004;8.246;2023-07-31T09:38:06;21.00;99.90
10702;DHT22;5402;50.004;8.246;2023-07-31T09:40:36;21.10;99.90
10702;DHT22;5402;50.004;8.246;2023-07-31T09:43:04;21.20;99.90
10702;DHT22;5402;50.004;8.246;2023-07-31T09:45:34;21.40;99.90
10702;DHT22;5402;50.004;8.246;2023-07-31T09:48:01;21.60;99.90
10702;DHT22;5402;50.004;8.246;2023-07-31T09:50:28;21.60;99.90
10702;DHT22;5402;50.004;8.246;2023-07-31T09:52:55;21.60;99.90
10702;DHT22;5402;50.004;8.246;2023-07-31T09:55:22;21.60;99.90
10702;DHT22;5402;50.004;8.246;2023-07-31T09:57:50;21.60;99.90
10702;DHT22;5402;50.004;8.246;2023-07-31T10:00:18;21.60;99.90
10702;DHT22;5402;50.004;8.246;2023-07-31T10:02:48;21.60;99.90
10702;DHT22;5402;50.004;8.246;2023-07-31T10:05:16;21.50;99.90
10702;DHT22;5402;50.004;8.246;2023-07-31T10:07:47;21.60;99.90
10702;DHT22;5402;50.004;8.246;2023-07-31T10:10:21;21.60;99.90
10702;DHT22;5402;50.004;8.246;2023-07-31T10:12:50;21.60;99.90
10702;DHT22;5402;50.004;8.246;2023-07-31T10:15:19;21.80;99.90
10702;DHT22;5402;50.004;8.246;2023-07-31T10:17:47;21.80;99.90
10702;DHT22;5402;50.004;8.246;2023-07-31T10:20:14;21.90;99.90
10702;DHT22;5402;50.004;8.246;2023-07-31T10:22:43;22.20;99.90
10702;DHT22;5402;50.004;8.246;2023-07-31T10:25:11;22.50;99.90
10702;DHT22;5402;50.004;8.246;2023-07-31T10:27:39;22.50;99.90
10702;DHT22;5402;50.004;8.246;2023-07-31T10:30:09;22.60;99.90
10702;DHT22;5402;50.004;8.246;2023-07-31T10:32:38;22.70;99.90
10702;DHT22;5402;50.004;8.246;2023-07-31T10:35:08;22.90;99.90
10702;DHT22;5402;50.004;8.246;2023-07-31T10:37:40;22.80;99.90
10702;DHT22;5402;50.004;8.246;2023-07-31T10:40:11;22.60;99.90
10702;DHT22;5402;50.004;8.246;2023-07-31T10:42:45;22.60;99.90
10702;DHT22;5402;50.004;8.246;2023-07-31T10:45:24;22.60;99.90
10702;DHT22;5402;50.004;8.246;2023-07-31T10:47:58;22.70;99.90
10702;DHT22;5402;50.004;8.246;2023-07-31T10:50:27;22.60;99.90
10702;DHT22;5402;50.004;8.246;2023-07-31T10:52:56;22.80;99.90
10702;DHT22;5402;50.004;8.246;2023-07-31T10:55:28;23.00;99.90
10702;DHT22;5402;50.004;8.246;2023-07-31T10:57:57;23.00;99.90
10702;DHT22;5402;50.004;8.246;2023-07-31T11:00:27;23.30;99.90
10702;DHT22;5402;50.004;8.246;2023-07-31T11:02:59;23.50;99.90
10702;DHT22;5402;50.004;8.246;2023-07-31T11:05:41;23.80;99.90
10702;DHT22;5402;50.004;8.246;2023-07-31T11:08:13;24.00;99.90
10702;DHT22;5402;50.004;8.246;2023-07-31T11:10:40;24.00;99.90
10702;DHT22;5402;50.004;8.246;2023-07-31T11:13:07;23.90;99.90
10702;DHT22;5402;50.004;8.246;2023-07-31T11:15:35;23.90;99.90
10702;DHT22;5402;50.004;8.246;2023-07-31T11:18:03;23.70;99.90
10702;DHT22;5402;50.004;8.246;2023-07-31T11:20:31;23.70;99.90
10702;DHT22;5402;50.004;8.246;2023-07-31T11:22:59;23.60;99.90
10702;DHT22;5402;50.004;8.246;2023-07-31T11:25:28;23.50;99.90
10702;DHT22;5402;50.004;8.246;2023-07-31T11:27:56;23.60;99.90
10702;DHT22;5402;50.004;8.246;2023-07-31T11:30:22;23.60;99.90
10702;DHT22;5402;50.004;8.246;2023-07-31T11:32:51;23.70;99.90
10702;DHT22;5402;50.004;8.246;2023-07-31T11:35:18;23.70;99.90
10702;DHT22;5402;50.004;8.246;2023-07-31T11:37:45;23.90;99.90
10702;DHT22;5402;50.004;8.246;2023-07-31T11:40:12;24.20;99.90
10702;DHT22;5402;50.004;8.246;2023-07-31T11:42:39;23.90;99.90
10702;DHT22;5402;50.004;8.246;2023-07-31T11:45:07;24.10;99.90
10702;DHT22;5402;50.004;8.246;2023-07-31T11:47:35;24.00;99.90
10702;DHT22;5402;50.004;8.246;2023-07-31T11:50:05;24.00;99.90
10702;DHT22;5402;50.004;8.246;2023-07-31T11:52:35;24.20;99.90
10702;DHT22;5402;50.004;8.246;2023-07-31T11:55:02;24.40;99.90
10702;DHT22;5402;50.004;8.246;2023-07-31T11:57:29;24.80;99.90
10702;DHT22;5402;50.004;8.246;2023-07-31T11:59:57;24.90;99.90
10702;DHT22;5402;50.004;8.246;2023-07-31T12:02:24;25.00;99.70
10702;DHT22;5402;50.004;8.246;2023-07-31T12:04:51;24.60;99.50
10702;DHT22;5402;50.004;8.246;2023-07-31T12:07:21;24.40;99.90
10702;DHT22;5402;50.004;8.246;2023-07-31T12:09:52;24.10;99.90
10702;DHT22;5402;50.004;8.246;2023-07-31T12:12:21;24.10;99.90
10702;DHT22;5402;50.004;8.246;2023-07-31T12:14:48;24.00;99.90
10702;DHT22;5402;50.004;8.246;2023-07-31T12:17:16;23.90;99.90
10702;DHT22;5402;50.004;8.246;2023-07-31T12:19:43;23.90;99.90
10702;DHT22;5402;50.004;8.246;2023-07-31T12:22:14;24.00;99.90
10702;DHT22;5402;50.004;8.246;2023-07-31T12:24:44;24.00;99.90
10702;DHT22;5402;50.004;8.246;2023-07-31T12:27:11;24.20;99.90
10702;DHT22;5402;50.004;8.246;2023-07-31T12:29:38;24.70;99.90
10702;DHT22;5402;50.004;8.246;2023-07-31T12:32:19;24.80;99.90
10702;DHT22;5402;50.004;8.246;2023-07-31T12:34:46;25.30;99.70
10702;DHT22;5402;50.004;8.246;2023-07-31T12:37:12;25.60;99.90
10702;DHT22;5402;50.004;8.246;2023-07-31T12:39:39;25.80;99.60
10702;DHT22;5402;50.004;8.246;2023-07-31T12:42:07;26.00;99.30
10702;DHT22;5402;50.004;8.246;2023-07-31T12:44:34;26.20;97.80
10702;DHT22;5402;50.004;8.246;2023-07-31T12:47:01;26.20;98.60
10702;DHT22;5402;50.004;8.246;2023-07-31T12:49:28;26.10;97.50
10702;DHT22;5402;50.004;8.246;2023-07-31T12:51:55;26.00;98.40
10702;DHT22;5402;50.004;8.246;2023-07-31T12:54:21;26.10;98.00
10702;DHT22;5402;50.004;8.246;2023-07-31T12:56:48;25.80;97.70
10702;DHT22;5402;50.004;8.246;2023-07-31T12:59:16;25.60;98.00
10702;DHT22;5402;50.004;8.246;2023-07-31T13:01:43;25.20;99.20
10702;DHT22;5402;50.004;8.246;2023-07-31T13:04:09;25.00;99.50
10702;DHT22;5402;50.004;8.246;2023-07-31T13:06:36;24.90;99.40
10702;DHT22;5402;50.004;8.246;2023-07-31T13:09:03;24.70;99.00
10702;DHT22;5402;50.004;8.246;2023-07-31T13:11:30;24.50;99.80
10702;DHT22;5402;50.004;8.246;2023-07-31T13:13:56;24.60;99.90
10702;DHT22;5402;50.004;8.246;2023-07-31T13:16:24;24.80;99.90
10702;DHT22;5402;50.004;8.246;2023-07-31T13:18:52;24.80;99.70
10702;DHT22;5402;50.004;8.246;2023-07-31T13:21:19;24.50;99.90
10702;DHT22;5402;50.004;8.246;2023-07-31T13:23:49;24.50;99.90
10702;DHT22;5402;50.004;8.246;2023-07-31T13:26:15;24.50;99.90
10702;DHT22;5402;50.004;8.246;2023-07-31T13:28:42;24.60;99.90
10702;DHT22;5402;50.004;8.246;2023-07-31T13:31:09;24.50;99.90
10702;DHT22;5402;50.004;8.246;2023-07-31T13:33:38;24.20;99.90
10702;DHT22;5402;50.004;8.246;2023-07-31T13:36:04;24.00;99.90
10702;DHT22;5402;50.004;8.246;2023-07-31T13:38:31;24.00;99.90
10702;DHT22;5402;50.004;8.246;2023-07-31T13:40:58;23.90;99.90
10702;DHT22;5402;50.004;8.246;2023-07-31T13:43:25;23.80;99.90
10702;DHT22;5402;50.004;8.246;2023-07-31T13:45:51;23.90;99.90
10702;DHT22;5402;50.004;8.246;2023-07-31T13:48:18;23.80;99.90
10702;DHT22;5402;50.004;8.246;2023-07-31T13:50:46;23.60;99.90
10702;DHT22;5402;50.004;8.246;2023-07-31T13:53:13;23.40;99.90
10702;DHT22;5402;50.004;8.246;2023-07-31T13:55:40;23.30;99.90
10702;DHT22;5402;50.004;8.246;2023-07-31T13:58:06;23.20;99.90
10702;DHT22;5402;50.004;8.246;2023-07-31T14:00:33;23.10;99.90
10702;DHT22;5402;50.004;8.246;2023-07-31T14:03:00;23.00;99.90
10702;DHT22;5402;50.004;8.246;2023-07-31T14:05:27;23.00;99.90
10702;DHT22;5402;50.004;8.246;2023-07-31T14:07:55;22.90;99.90
10702;DHT22;5402;50.004;8.246;2023-07-31T14:10:22;22.90;99.90
10702;DHT22;5402;50.004;8.246;2023-07-31T14:12:48;22.90;99.90
10702;DHT22;5402;50.004;8.246;2023-07-31T14:15:15;22.80;99.90
10702;DHT22;5402;50.004;8.246;2023-07-31T14:17:42;22.60;99.90
10702;DHT22;5402;50.004;8.246;2023-07-31T14:20:10;22.80;99.90
10702;DHT22;5402;50.004;8.246;2023-07-31T14:22:37;22.70;99.90
10702;DHT22;5402;50.004;8.246;2023-07-31T14:25:06;22.70;99.90
10702;DHT22;5402;50.004;8.246;2023-07-31T14:27:35;22.80;99.90
10702;DHT22;5402;50.004;8.246;2023-07-31T14:30:02;22.80;99.90
10702;DHT22;5402;50.004;8.246;2023-07-31T14:32:29;22.90;99.90
10702;DHT22;5402;50.004;8.246;2023-07-31T14:34:57;23.00;99.90
10702;DHT22;5402;50.004;8.246;2023-07-31T14:37:26;23.00;99.90
10702;DHT22;5402;50.004;8.246;2023-07-31T14:39:53;22.90;99.90
10702;DHT22;5402;50.004;8.246;2023-07-31T14:42:21;22.90;99.90
10702;DHT22;5402;50.004;8.246;2023-07-31T14:44:48;22.90;99.90
10702;DHT22;5402;50.004;8.246;2023-07-31T14:47:14;22.80;99.90
10702;DHT22;5402;50.004;8.246;2023-07-31T14:49:41;22.90;99.90
10702;DHT22;5402;50.004;8.246;2023-07-31T14:52:09;22.80;99.90
10702;DHT22;5402;50.004;8.246;2023-07-31T14:54:36;22.90;99.90
10702;DHT22;5402;50.004;8.246;2023-07-31T14:57:03;22.90;99.90
10702;DHT22;5402;50.004;8.246;2023-07-31T14:59:31;22.80;99.90
10702;DHT22;5402;50.004;8.246;2023-07-31T15:01:58;22.80;99.90
10702;DHT22;5402;50.004;8.246;2023-07-31T15:04:25;22.90;99.90
10702;DHT22;5402;50.004;8.246;2023-07-31T15:06:52;22.90;99.90
10702;DHT22;5402;50.004;8.246;2023-07-31T15:09:19;22.70;99.90
10702;DHT22;5402;50.004;8.246;2023-07-31T15:11:46;22.60;99.90
10702;DHT22;5402;50.004;8.246;2023-07-31T15:14:14;22.60;99.90
10702;DHT22;5402;50.004;8.246;2023-07-31T15:16:42;22.40;99.90
10702;DHT22;5402;50.004;8.246;2023-07-31T15:19:09;22.40;99.90
10702;DHT22;5402;50.004;8.246;2023-07-31T15:21:37;22.30;99.90
10702;DHT22;5402;50.004;8.246;2023-07-31T15:24:04;22.20;99.90
10702;DHT22;5402;50.004;8.246;2023-07-31T15:26:31;22.10;99.90
10702;DHT22;5402;50.004;8.246;2023-07-31T15:29:01;21.90;99.90
10702;DHT22;5402;50.004;8.246;2023-07-31T15:31:29;21.90;99.90
10702;DHT22;5402;50.004;8.246;2023-07-31T15:33:59;22.00;99.90
10702;DHT22;5402;50.004;8.246;2023-07-31T15:36:26;21.90;99.90
10702;DHT22;5402;50.004;8.246;2023-07-31T15:38:53;22.00;99.90
10702;DHT22;5402;50.004;8.246;2023-07-31T15:41:19;21.90;99.90
10702;DHT22;5402;50.004;8.246;2023-07-31T15:43:46;21.90;99.90
10702;DHT22;5402;50.004;8.246;2023-07-31T15:46:14;21.90;99.90
10702;DHT22;5402;50.004;8.246;2023-07-31T15:48:41;21.80;99.90